sensor_id;sensor_type;location;lat;lon;timestamp;P1;durP1;ratioP1;P2;durP2;ratioP2
20639;SDS011;10479;53.524;9.846;2023-03-24T00:01:55;9.68;;;2.50;;
20639;SDS011;10479;53.524;9.846;2023-03-24T00:04:21;8.35;;;2.78;;
20639;SDS011;10479;53.524;9.846;2023-03-24T00:06:48;6.75;;;2.10;;
20639;SDS011;10479;53.524;9.846;2023-03-24T00:09:15;9.70;;;2.60;;
20639;SDS011;10479;53.524;9.846;2023-03-24T00:11:41;9.05;;;2.53;;
20639;SDS011;10479;53.524;9.846;2023-03-24T00:14:06;11.50;;;2.83;;
20639;SDS011;10479;53.524;9.846;2023-03-24T00:16:36;8.85;;;2.53;;
20639;SDS011;10479;53.524;9.846;2023-03-24T00:19:06;6.50;;;2.40;;
20639;SDS011;10479;53.524;9.846;2023-03-24T00:21:33;6.93;;;2.60;;
20639;SDS011;10479;53.524;9.846;2023-03-24T00:23:58;6.28;;;2.50;;
20639;SDS011;10479;53.524;9.846;2023-03-24T00:26:25;7.65;;;2.35;;
20639;SDS011;10479;53.524;9.846;2023-03-24T00:28:50;7.75;;;2.20;;
20639;SDS011;10479;53.524;9.846;2023-03-24T00:31:16;8.25;;;2.70;;
20639;SDS011;10479;53.524;9.846;2023-03-24T00:33:43;7.47;;;2.50;;
20639;SDS011;10479;53.524;9.846;2023-03-24T00:36:14;7.90;;;2.83;;
20639;SDS011;10479;53.524;9.846;2023-03-24T00:38:41;8.55;;;2.17;;
20639;SDS011;10479;53.524;9.846;2023-03-24T00:41:07;9.30;;;2.78;;
20639;SDS011;10479;53.524;9.846;2023-03-24T00:43:33;11.02;;;2.80;;
20639;SDS011;10479;53.524;9.846;2023-03-24T00:45:59;11.07;;;3.20;;
20639;SDS011;10479;53.524;9.846;2023-03-24T00:48:26;9.52;;;2.90;;
20639;SDS011;10479;53.524;9.846;2023-03-24T00:50:53;5.63;;;1.70;;
20639;SDS011;10479;53.524;9.846;2023-03-24T00:53:18;9.05;;;2.92;;
20639;SDS011;10479;53.524;9.846;2023-03-24T00:55:45;9.63;;;2.95;;
20639;SDS011;10479;53.524;9.846;2023-03-24T00:58:15;6.57;;;2.28;;
20639;SDS011;10479;53.524;9.846;2023-03-24T01:00:46;11.02;;;2.80;;
20639;SDS011;10479;53.524;9.846;2023-03-24T01:03:13;9.30;;;2.80;;
20639;SDS011;10479;53.524;9.846;2023-03-24T01:05:40;6.75;;;1.98;;
20639;SDS011;10479;53.524;9.846;2023-03-24T01:08:06;7.82;;;3.42;;
20639;SDS011;10479;53.524;9.846;2023-03-24T01:10:35;11.25;;;2.95;;
20639;SDS011;10479;53.524;9.846;2023-03-24T01:13:07;8.63;;;2.85;;
20639;SDS011;10479;53.524;9.846;2023-03-24T01:15:34;13.60;;;3.30;;
20639;SDS011;10479;53.524;9.846;2023-03-24T01:18:00;9.90;;;3.30;;
20639;SDS011;10479;53.524;9.846;2023-03-24T01:20:26;11.02;;;3.33;;
20639;SDS011;10479;53.524;9.846;2023-03-24T01:22:57;9.63;;;3.28;;
20639;SDS011;10479;53.524;9.846;2023-03-24T01:25:23;7.35;;;2.70;;
20639;SDS011;10479;53.524;9.846;2023-03-24T01:27:50;10.52;;;3.25;;
20639;SDS011;10479;53.524;9.846;2023-03-24T01:30:18;9.32;;;3.28;;
20639;SDS011;10479;53.524;9.846;2023-03-24T01:32:45;8.60;;;3.38;;
20639;SDS011;10479;53.524;9.846;2023-03-24T01:35:11;9.93;;;3.40;;
20639;SDS011;10479;53.524;9.846;2023-03-24T01:37:37;8.00;;;2.95;;
20639;SDS011;10479;53.524;9.846;2023-03-24T01:40:03;10.18;;;3.65;;
20639;SDS011;10479;53.524;9.846;2023-03-24T01:42:36;8.88;;;3.08;;
20639;SDS011;10479;53.524;9.846;2023-03-24T01:48:06;8.50;;;2.83;;
20639;SDS011;10479;53.524;9.846;2023-03-24T01:50:54;11.57;;;3.30;;
20639;SDS011;10479;53.524;9.846;2023-03-24T01:53:24;10.93;;;3.35;;
20639;SDS011;10479;53.524;9.846;2023-03-24T01:55:50;11.38;;;4.05;;
20639;SDS011;10479;53.524;9.846;2023-03-24T01:58:16;10.40;;;3.40;;
20639;SDS011;10479;53.524;9.846;2023-03-24T02:00:42;8.60;;;3.83;;
20639;SDS011;10479;53.524;9.846;2023-03-24T02:03:10;8.25;;;3.22;;
20639;SDS011;10479;53.524;9.846;2023-03-24T02:05:38;7.65;;;3.50;;
20639;SDS011;10479;53.524;9.846;2023-03-24T02:10:33;9.23;;;3.63;;
20639;SDS011;10479;53.524;9.846;2023-03-24T02:12:59;9.23;;;2.83;;
20639;SDS011;10479;53.524;9.846;2023-03-24T02:15:26;8.75;;;3.40;;
20639;SDS011;10479;53.524;9.846;2023-03-24T02:52:15;12.35;;;3.83;;
20639;SDS011;10479;53.524;9.846;2023-03-24T02:54:50;8.88;;;3.55;;
20639;SDS011;10479;53.524;9.846;2023-03-24T02:57:33;15.52;;;4.10;;
20639;SDS011;10479;53.524;9.846;2023-03-24T03:00:15;6.65;;;2.75;;
20639;SDS011;10479;53.524;9.846;2023-03-24T03:02:49;7.30;;;3.72;;
20639;SDS011;10479;53.524;9.846;2023-03-24T03:05:21;7.95;;;3.38;;
20639;SDS011;10479;53.524;9.846;2023-03-24T03:07:50;9.50;;;3.85;;
20639;SDS011;10479;53.524;9.846;2023-03-24T03:10:19;9.25;;;4.03;;
20639;SDS011;10479;53.524;9.846;2023-03-24T03:12:48;10.68;;;3.97;;
20639;SDS011;10479;53.524;9.846;2023-03-24T03:15:21;10.27;;;3.75;;
20639;SDS011;10479;53.524;9.846;2023-03-24T03:17:57;9.65;;;4.38;;
20639;SDS011;10479;53.524;9.846;2023-03-24T03:20:24;12.25;;;4.88;;
20639;SDS011;10479;53.524;9.846;2023-03-24T03:23:10;13.27;;;4.20;;
20639;SDS011;10479;53.524;9.846;2023-03-24T03:25:42;10.85;;;4.95;;
20639;SDS011;10479;53.524;9.846;2023-03-24T03:28:11;8.88;;;3.92;;
20639;SDS011;10479;53.524;9.846;2023-03-24T03:30:42;10.43;;;3.70;;
20639;SDS011;10479;53.524;9.846;2023-03-24T03:33:14;10.18;;;3.80;;
20639;SDS011;10479;53.524;9.846;2023-03-24T03:39:26;9.73;;;4.43;;
20639;SDS011;10479;53.524;9.846;2023-03-24T03:41:40;11.20;;;4.43;;
20639;SDS011;10479;53.524;9.846;2023-03-24T03:44:06;9.95;;;3.90;;
20639;SDS011;10479;53.524;9.846;2023-03-24T03:46:31;11.70;;;4.40;;
20639;SDS011;10479;53.524;9.846;2023-03-24T03:48:59;10.25;;;4.22;;
20639;SDS011;10479;53.524;9.846;2023-03-24T03:51:24;7.70;;;3.38;;
20639;SDS011;10479;53.524;9.846;2023-03-24T03:53:54;7.90;;;3.42;;
20639;SDS011;10479;53.524;9.846;2023-03-24T03:56:26;9.23;;;4.03;;
20639;SDS011;10479;53.524;9.846;2023-03-24T03:58:52;8.60;;;4.00;;
20639;SDS011;10479;53.524;9.846;2023-03-24T04:01:19;9.13;;;3.70;;
20639;SDS011;10479;53.524;9.846;2023-03-24T04:03:57;11.13;;;3.90;;
20639;SDS011;10479;53.524;9.846;2023-03-24T04:12:21;15.17;;;4.07;;
20639;SDS011;10479;53.524;9.846;2023-03-24T04:17:45;11.70;;;3.67;;
20639;SDS011;10479;53.524;9.846;2023-03-24T04:20:16;13.48;;;3.80;;
20639;SDS011;10479;53.524;9.846;2023-03-24T04:23:10;7.38;;;3.58;;
20639;SDS011;10479;53.524;9.846;2023-03-24T04:30:56;11.50;;;4.45;;
20639;SDS011;10479;53.524;9.846;2023-03-24T04:33:51;6.82;;;3.85;;
20639;SDS011;10479;53.524;9.846;2023-03-24T04:38:51;8.43;;;4.30;;
20639;SDS011;10479;53.524;9.846;2023-03-24T04:41:18;10.27;;;4.55;;
20639;SDS011;10479;53.524;9.846;2023-03-24T04:43:45;8.63;;;5.22;;
20639;SDS011;10479;53.524;9.846;2023-03-24T04:46:11;9.05;;;4.47;;
20639;SDS011;10479;53.524;9.846;2023-03-24T04:48:41;9.95;;;4.68;;
20639;SDS011;10479;53.524;9.846;2023-03-24T04:51:08;10.60;;;5.53;;
20639;SDS011;10479;53.524;9.846;2023-03-24T04:53:35;13.10;;;5.88;;
20639;SDS011;10479;53.524;9.846;2023-03-24T04:58:55;10.02;;;5.18;;
20639;SDS011;10479;53.524;9.846;2023-03-24T05:01:22;8.20;;;5.43;;
20639;SDS011;10479;53.524;9.846;2023-03-24T05:03:54;10.57;;;5.70;;
20639;SDS011;10479;53.524;9.846;2023-03-24T05:06:23;12.85;;;5.43;;
20639;SDS011;10479;53.524;9.846;2023-03-24T05:08:49;15.57;;;5.25;;
20639;SDS011;10479;53.524;9.846;2023-03-24T05:11:16;11.20;;;4.63;;
20639;SDS011;10479;53.524;9.846;2023-03-24T05:13:42;7.63;;;4.85;;
20639;SDS011;10479;53.524;9.846;2023-03-24T05:16:08;9.90;;;5.07;;
20639;SDS011;10479;53.524;9.846;2023-03-24T05:18:34;11.45;;;5.45;;
20639;SDS011;10479;53.524;9.846;2023-03-24T05:20:59;7.75;;;4.32;;
20639;SDS011;10479;53.524;9.846;2023-03-24T05:23:25;8.45;;;4.47;;
20639;SDS011;10479;53.524;9.846;2023-03-24T05:25:50;9.07;;;4.20;;
20639;SDS011;10479;53.524;9.846;2023-03-24T05:28:16;10.30;;;4.43;;
20639;SDS011;10479;53.524;9.846;2023-03-24T05:30:41;9.73;;;4.97;;
20639;SDS011;10479;53.524;9.846;2023-03-24T05:33:07;9.10;;;4.57;;
20639;SDS011;10479;53.524;9.846;2023-03-24T05:35:32;9.23;;;4.20;;
20639;SDS011;10479;53.524;9.846;2023-03-24T05:37:57;9.55;;;5.65;;
20639;SDS011;10479;53.524;9.846;2023-03-24T05:40:23;7.35;;;3.72;;
20639;SDS011;10479;53.524;9.846;2023-03-24T05:42:48;7.03;;;4.15;;
20639;SDS011;10479;53.524;9.846;2023-03-24T05:45:14;9.43;;;4.72;;
20639;SDS011;10479;53.524;9.846;2023-03-24T05:47:40;7.47;;;3.60;;
20639;SDS011;10479;53.524;9.846;2023-03-24T05:50:05;7.35;;;3.65;;
20639;SDS011;10479;53.524;9.846;2023-03-24T05:52:32;8.45;;;4.15;;
20639;SDS011;10479;53.524;9.846;2023-03-24T05:54:57;9.07;;;4.57;;
20639;SDS011;10479;53.524;9.846;2023-03-24T05:57:23;8.00;;;4.18;;
20639;SDS011;10479;53.524;9.846;2023-03-24T05:59:48;7.20;;;4.43;;
20639;SDS011;10479;53.524;9.846;2023-03-24T06:02:14;9.63;;;4.90;;
20639;SDS011;10479;53.524;9.846;2023-03-24T06:04:39;10.48;;;4.50;;
20639;SDS011;10479;53.524;9.846;2023-03-24T06:07:10;9.40;;;5.40;;
20639;SDS011;10479;53.524;9.846;2023-03-24T06:09:36;7.72;;;4.68;;
20639;SDS011;10479;53.524;9.846;2023-03-24T06:12:02;7.15;;;4.35;;
20639;SDS011;10479;53.524;9.846;2023-03-24T06:14:28;8.52;;;4.72;;
20639;SDS011;10479;53.524;9.846;2023-03-24T06:16:54;9.65;;;4.88;;
20639;SDS011;10479;53.524;9.846;2023-03-24T06:19:25;6.50;;;3.97;;
20639;SDS011;10479;53.524;9.846;2023-03-24T06:21:52;8.10;;;4.85;;
20639;SDS011;10479;53.524;9.846;2023-03-24T06:24:20;7.70;;;4.40;;
20639;SDS011;10479;53.524;9.846;2023-03-24T06:26:47;6.68;;;3.53;;
20639;SDS011;10479;53.524;9.846;2023-03-24T06:29:15;5.75;;;3.33;;
20639;SDS011;10479;53.524;9.846;2023-03-24T06:31:44;6.15;;;3.65;;
20639;SDS011;10479;53.524;9.846;2023-03-24T06:34:10;6.80;;;3.60;;
20639;SDS011;10479;53.524;9.846;2023-03-24T06:36:36;5.85;;;3.75;;
20639;SDS011;10479;53.524;9.846;2023-03-24T06:39:04;8.82;;;4.07;;
20639;SDS011;10479;53.524;9.846;2023-03-24T06:41:32;8.90;;;4.40;;
20639;SDS011;10479;53.524;9.846;2023-03-24T06:43:59;7.55;;;4.40;;
20639;SDS011;10479;53.524;9.846;2023-03-24T06:46:30;8.35;;;4.07;;
20639;SDS011;10479;53.524;9.846;2023-03-24T06:48:59;6.57;;;3.78;;
20639;SDS011;10479;53.524;9.846;2023-03-24T06:51:26;7.13;;;3.80;;
20639;SDS011;10479;53.524;9.846;2023-03-24T06:53:53;7.18;;;3.47;;
20639;SDS011;10479;53.524;9.846;2023-03-24T06:56:20;7.07;;;4.30;;
20639;SDS011;10479;53.524;9.846;2023-03-24T06:58:49;7.07;;;3.58;;
20639;SDS011;10479;53.524;9.846;2023-03-24T07:01:16;7.05;;;3.63;;
20639;SDS011;10479;53.524;9.846;2023-03-24T07:03:44;6.63;;;3.50;;
20639;SDS011;10479;53.524;9.846;2023-03-24T07:06:12;4.95;;;3.17;;
20639;SDS011;10479;53.524;9.846;2023-03-24T07:08:37;4.45;;;2.40;;
20639;SDS011;10479;53.524;9.846;2023-03-24T07:11:05;5.05;;;1.80;;
20639;SDS011;10479;53.524;9.846;2023-03-24T07:13:33;5.00;;;2.30;;
20639;SDS011;10479;53.524;9.846;2023-03-24T07:16:01;3.58;;;2.03;;
20639;SDS011;10479;53.524;9.846;2023-03-24T07:18:26;7.88;;;2.08;;
20639;SDS011;10479;53.524;9.846;2023-03-24T07:20:52;3.03;;;1.15;;
20639;SDS011;10479;53.524;9.846;2023-03-24T07:23:17;4.47;;;1.40;;
20639;SDS011;10479;53.524;9.846;2023-03-24T07:25:43;5.35;;;0.90;;
20639;SDS011;10479;53.524;9.846;2023-03-24T07:28:09;5.60;;;1.20;;
20639;SDS011;10479;53.524;9.846;2023-03-24T07:30:35;3.85;;;0.98;;
20639;SDS011;10479;53.524;9.846;2023-03-24T07:33:05;5.05;;;0.90;;
20639;SDS011;10479;53.524;9.846;2023-03-24T07:35:34;4.20;;;0.80;;
20639;SDS011;10479;53.524;9.846;2023-03-24T07:38:01;5.97;;;1.02;;
20639;SDS011;10479;53.524;9.846;2023-03-24T07:40:29;7.95;;;1.27;;
20639;SDS011;10479;53.524;9.846;2023-03-24T07:42:55;6.53;;;0.93;;
20639;SDS011;10479;53.524;9.846;2023-03-24T07:45:24;5.53;;;0.80;;
20639;SDS011;10479;53.524;9.846;2023-03-24T07:47:50;4.90;;;1.45;;
20639;SDS011;10479;53.524;9.846;2023-03-24T07:50:16;6.07;;;0.90;;
20639;SDS011;10479;53.524;9.846;2023-03-24T07:52:46;6.85;;;1.55;;
20639;SDS011;10479;53.524;9.846;2023-03-24T07:55:13;8.07;;;1.30;;
20639;SDS011;10479;53.524;9.846;2023-03-24T07:57:44;6.97;;;1.10;;
20639;SDS011;10479;53.524;9.846;2023-03-24T08:00:11;6.25;;;0.90;;
20639;SDS011;10479;53.524;9.846;2023-03-24T08:02:42;8.07;;;1.15;;
20639;SDS011;10479;53.524;9.846;2023-03-24T08:05:08;9.77;;;1.50;;
20639;SDS011;10479;53.524;9.846;2023-03-24T08:07:35;8.40;;;1.38;;
20639;SDS011;10479;53.524;9.846;2023-03-24T08:10:01;7.57;;;1.50;;
20639;SDS011;10479;53.524;9.846;2023-03-24T08:12:28;8.10;;;1.17;;
20639;SDS011;10479;53.524;9.846;2023-03-24T08:14:55;7.18;;;1.00;;
20639;SDS011;10479;53.524;9.846;2023-03-24T08:17:29;6.97;;;1.13;;
20639;SDS011;10479;53.524;9.846;2023-03-24T08:19:56;6.40;;;1.10;;
20639;SDS011;10479;53.524;9.846;2023-03-24T08:22:24;6.80;;;1.50;;
20639;SDS011;10479;53.524;9.846;2023-03-24T08:24:51;6.35;;;1.48;;
20639;SDS011;10479;53.524;9.846;2023-03-24T08:27:17;5.22;;;1.10;;
20639;SDS011;10479;53.524;9.846;2023-03-24T08:29:46;7.75;;;1.50;;
20639;SDS011;10479;53.524;9.846;2023-03-24T08:32:11;6.03;;;1.10;;
20639;SDS011;10479;53.524;9.846;2023-03-24T08:34:38;9.75;;;1.10;;
20639;SDS011;10479;53.524;9.846;2023-03-24T08:37:05;9.32;;;1.52;;
20639;SDS011;10479;53.524;9.846;2023-03-24T08:39:31;7.22;;;1.38;;
20639;SDS011;10479;53.524;9.846;2023-03-24T08:42:00;9.35;;;1.60;;
20639;SDS011;10479;53.524;9.846;2023-03-24T08:44:27;4.05;;;1.30;;
20639;SDS011;10479;53.524;9.846;2023-03-24T08:46:53;8.40;;;1.58;;
20639;SDS011;10479;53.524;9.846;2023-03-24T08:49:19;8.77;;;1.65;;
20639;SDS011;10479;53.524;9.846;2023-03-24T08:51:45;7.05;;;1.38;;
20639;SDS011;10479;53.524;9.846;2023-03-24T08:54:11;9.18;;;1.50;;
20639;SDS011;10479;53.524;9.846;2023-03-24T08:56:37;6.32;;;1.63;;
20639;SDS011;10479;53.524;9.846;2023-03-24T08:59:04;6.90;;;1.20;;
20639;SDS011;10479;53.524;9.846;2023-03-24T09:01:32;9.23;;;1.70;;
20639;SDS011;10479;53.524;9.846;2023-03-24T09:04:00;6.18;;;1.50;;
20639;SDS011;10479;53.524;9.846;2023-03-24T09:06:27;8.50;;;1.70;;
20639;SDS011;10479;53.524;9.846;2023-03-24T09:08:55;6.47;;;1.30;;
20639;SDS011;10479;53.524;9.846;2023-03-24T09:11:22;5.57;;;1.30;;
20639;SDS011;10479;53.524;9.846;2023-03-24T09:13:48;6.15;;;1.23;;
20639;SDS011;10479;53.524;9.846;2023-03-24T09:16:16;8.60;;;1.55;;
20639;SDS011;10479;53.524;9.846;2023-03-24T09:18:43;7.32;;;1.40;;
20639;SDS011;10479;53.524;9.846;2023-03-24T09:21:10;12.35;;;1.98;;
20639;SDS011;10479;53.524;9.846;2023-03-24T09:23:36;13.50;;;1.95;;
20639;SDS011;10479;53.524;9.846;2023-03-24T09:26:02;9.60;;;1.17;;
20639;SDS011;10479;53.524;9.846;2023-03-24T09:28:28;10.57;;;1.63;;
20639;SDS011;10479;53.524;9.846;2023-03-24T09:30:57;10.45;;;1.40;;
20639;SDS011;10479;53.524;9.846;2023-03-24T09:33:26;12.48;;;1.77;;
20639;SDS011;10479;53.524;9.846;2023-03-24T09:35:55;8.13;;;1.45;;
20639;SDS011;10479;53.524;9.846;2023-03-24T09:38:25;8.75;;;1.30;;
20639;SDS011;10479;53.524;9.846;2023-03-24T09:40:54;13.25;;;1.75;;
20639;SDS011;10479;53.524;9.846;2023-03-24T09:46:35;12.45;;;1.80;;
20639;SDS011;10479;53.524;9.846;2023-03-24T09:49:15;10.80;;;2.10;;
20639;SDS011;10479;53.524;9.846;2023-03-24T09:51:50;10.55;;;1.55;;
20639;SDS011;10479;53.524;9.846;2023-03-24T09:57:31;11.95;;;1.60;;
20639;SDS011;10479;53.524;9.846;2023-03-24T10:00:19;9.40;;;1.52;;
20639;SDS011;10479;53.524;9.846;2023-03-24T10:03:10;10.82;;;1.50;;
20639;SDS011;10479;53.524;9.846;2023-03-24T10:05:42;10.88;;;1.90;;
20639;SDS011;10479;53.524;9.846;2023-03-24T10:08:42;10.52;;;1.67;;
20639;SDS011;10479;53.524;9.846;2023-03-24T10:11:18;10.20;;;1.60;;
20639;SDS011;10479;53.524;9.846;2023-03-24T10:17:02;9.55;;;1.30;;
20639;SDS011;10479;53.524;9.846;2023-03-24T10:19:53;10.23;;;2.22;;
20639;SDS011;10479;53.524;9.846;2023-03-24T10:25:24;14.50;;;1.80;;
20639;SDS011;10479;53.524;9.846;2023-03-24T10:28:01;7.50;;;1.50;;
20639;SDS011;10479;53.524;9.846;2023-03-24T10:30:34;8.65;;;1.35;;
20639;SDS011;10479;53.524;9.846;2023-03-24T10:33:20;8.88;;;1.70;;
20639;SDS011;10479;53.524;9.846;2023-03-24T10:38:21;7.03;;;1.42;;
20639;SDS011;10479;53.524;9.846;2023-03-24T10:40:49;11.52;;;1.63;;
20639;SDS011;10479;53.524;9.846;2023-03-24T10:43:16;11.82;;;1.73;;
20639;SDS011;10479;53.524;9.846;2023-03-24T10:45:48;4.90;;;1.00;;
20639;SDS011;10479;53.524;9.846;2023-03-24T10:51:45;10.10;;;1.75;;
20639;SDS011;10479;53.524;9.846;2023-03-24T10:54:21;9.13;;;1.13;;
20639;SDS011;10479;53.524;9.846;2023-03-24T10:59:27;11.43;;;1.80;;
20639;SDS011;10479;53.524;9.846;2023-03-24T11:02:01;8.60;;;1.70;;
20639;SDS011;10479;53.524;9.846;2023-03-24T11:04:40;8.35;;;1.25;;
20639;SDS011;10479;53.524;9.846;2023-03-24T11:07:17;12.23;;;1.80;;
20639;SDS011;10479;53.524;9.846;2023-03-24T11:09:46;8.95;;;1.38;;
20639;SDS011;10479;53.524;9.846;2023-03-24T11:15:22;8.60;;;1.35;;
20639;SDS011;10479;53.524;9.846;2023-03-24T11:17:57;8.18;;;1.30;;
20639;SDS011;10479;53.524;9.846;2023-03-24T11:23:15;6.22;;;1.63;;
20639;SDS011;10479;53.524;9.846;2023-03-24T11:25:42;5.95;;;1.40;;
20639;SDS011;10479;53.524;9.846;2023-03-24T11:28:39;13.15;;;2.42;;
20639;SDS011;10479;53.524;9.846;2023-03-24T11:31:23;10.30;;;1.50;;
20639;SDS011;10479;53.524;9.846;2023-03-24T11:34:13;10.55;;;1.80;;
20639;SDS011;10479;53.524;9.846;2023-03-24T11:36:48;13.63;;;1.83;;
20639;SDS011;10479;53.524;9.846;2023-03-24T11:39:21;11.52;;;1.80;;
20639;SDS011;10479;53.524;9.846;2023-03-24T11:41:58;11.45;;;1.30;;
20639;SDS011;10479;53.524;9.846;2023-03-24T11:47:28;10.68;;;1.60;;
20639;SDS011;10479;53.524;9.846;2023-03-24T11:55:31;15.70;;;2.10;;
20639;SDS011;10479;53.524;9.846;2023-03-24T12:01:07;13.73;;;2.35;;
20639;SDS011;10479;53.524;9.846;2023-03-24T12:25:17;7.07;;;1.48;;
20639;SDS011;10479;53.524;9.846;2023-03-24T12:31:28;9.15;;;2.17;;
20639;SDS011;10479;53.524;9.846;2023-03-24T12:37:16;8.05;;;1.58;;
20639;SDS011;10479;53.524;9.846;2023-03-24T12:42:15;13.73;;;2.03;;
20639;SDS011;10479;53.524;9.846;2023-03-24T12:52:39;10.88;;;1.80;;
20639;SDS011;10479;53.524;9.846;2023-03-24T12:55:15;11.52;;;1.88;;
20639;SDS011;10479;53.524;9.846;2023-03-24T12:58:11;13.52;;;2.08;;
20639;SDS011;10479;53.524;9.846;2023-03-24T13:01:06;12.02;;;2.28;;
20639;SDS011;10479;53.524;9.846;2023-03-24T13:06:56;8.57;;;1.77;;
20639;SDS011;10479;53.524;9.846;2023-03-24T13:15:12;9.98;;;1.85;;
20639;SDS011;10479;53.524;9.846;2023-03-24T13:21:19;12.68;;;1.52;;
20639;SDS011;10479;53.524;9.846;2023-03-24T13:23:36;12.30;;;1.90;;
20639;SDS011;10479;53.524;9.846;2023-03-24T13:34:37;9.82;;;1.48;;
20639;SDS011;10479;53.524;9.846;2023-03-24T13:37:10;9.95;;;1.65;;
20639;SDS011;10479;53.524;9.846;2023-03-24T13:39:38;9.05;;;1.85;;
20639;SDS011;10479;53.524;9.846;2023-03-24T13:42:06;13.30;;;1.70;;
20639;SDS011;10479;53.524;9.846;2023-03-24T13:44:41;11.75;;;1.92;;
20639;SDS011;10479;53.524;9.846;2023-03-24T13:47:12;8.98;;;1.60;;
20639;SDS011;10479;53.524;9.846;2023-03-24T13:49:49;14.98;;;2.05;;
20639;SDS011;10479;53.524;9.846;2023-03-24T13:52:25;12.98;;;1.92;;
20639;SDS011;10479;53.524;9.846;2023-03-24T13:54:55;9.68;;;1.48;;
20639;SDS011;10479;53.524;9.846;2023-03-24T13:57:25;7.18;;;1.50;;
20639;SDS011;10479;53.524;9.846;2023-03-24T13:59:59;11.80;;;2.35;;
20639;SDS011;10479;53.524;9.846;2023-03-24T14:08:11;6.75;;;1.42;;
20639;SDS011;10479;53.524;9.846;2023-03-24T14:10:47;9.73;;;1.75;;
20639;SDS011;10479;53.524;9.846;2023-03-24T14:15:44;11.10;;;1.70;;
20639;SDS011;10479;53.524;9.846;2023-03-24T14:26:01;9.07;;;1.75;;
20639;SDS011;10479;53.524;9.846;2023-03-24T14:30:59;12.20;;;1.48;;
20639;SDS011;10479;53.524;9.846;2023-03-24T14:36:27;7.57;;;1.60;;
20639;SDS011;10479;53.524;9.846;2023-03-24T14:41:47;10.20;;;1.20;;
20639;SDS011;10479;53.524;9.846;2023-03-24T14:44:40;8.02;;;1.48;;
20639;SDS011;10479;53.524;9.846;2023-03-24T14:47:15;8.63;;;1.60;;
20639;SDS011;10479;53.524;9.846;2023-03-24T14:49:42;6.75;;;1.08;;
20639;SDS011;10479;53.524;9.846;2023-03-24T14:52:10;8.65;;;1.25;;
20639;SDS011;10479;53.524;9.846;2023-03-24T15:10:42;7.00;;;1.25;;
20639;SDS011;10479;53.524;9.846;2023-03-24T15:15:51;6.93;;;1.20;;
20639;SDS011;10479;53.524;9.846;2023-03-24T15:18:17;9.50;;;1.25;;
20639;SDS011;10479;53.524;9.846;2023-03-24T15:20:50;6.80;;;1.23;;
20639;SDS011;10479;53.524;9.846;2023-03-24T15:23:21;10.00;;;1.45;;
20639;SDS011;10479;53.524;9.846;2023-03-24T15:25:48;10.75;;;1.65;;
20639;SDS011;10479;53.524;9.846;2023-03-24T15:28:25;8.98;;;1.40;;
20639;SDS011;10479;53.524;9.846;2023-03-24T15:30:52;8.80;;;1.67;;
20639;SDS011;10479;53.524;9.846;2023-03-24T15:33:18;10.15;;;1.45;;
20639;SDS011;10479;53.524;9.846;2023-03-24T15:35:44;12.00;;;1.52;;
20639;SDS011;10479;53.524;9.846;2023-03-24T15:38:19;10.68;;;1.75;;
20639;SDS011;10479;53.524;9.846;2023-03-24T15:40:59;6.03;;;1.38;;
20639;SDS011;10479;53.524;9.846;2023-03-24T15:46:29;8.40;;;1.25;;
20639;SDS011;10479;53.524;9.846;2023-03-24T15:48:55;10.70;;;2.17;;
20639;SDS011;10479;53.524;9.846;2023-03-24T15:54:23;12.07;;;1.85;;
20639;SDS011;10479;53.524;9.846;2023-03-24T15:59:50;10.98;;;1.80;;
20639;SDS011;10479;53.524;9.846;2023-03-24T16:04:55;13.47;;;2.00;;
20639;SDS011;10479;53.524;9.846;2023-03-24T16:07:27;5.78;;;1.42;;
20639;SDS011;10479;53.524;9.846;2023-03-24T16:09:57;10.70;;;1.75;;
20639;SDS011;10479;53.524;9.846;2023-03-24T16:12:29;7.97;;;1.63;;
20639;SDS011;10479;53.524;9.846;2023-03-24T16:14:55;14.02;;;1.92;;
20639;SDS011;10479;53.524;9.846;2023-03-24T16:17:20;8.43;;;1.58;;
20639;SDS011;10479;53.524;9.846;2023-03-24T16:19:46;9.90;;;2.00;;
20639;SDS011;10479;53.524;9.846;2023-03-24T16:22:11;9.48;;;1.63;;
20639;SDS011;10479;53.524;9.846;2023-03-24T16:24:37;11.55;;;1.77;;
20639;SDS011;10479;53.524;9.846;2023-03-24T16:27:02;10.02;;;1.45;;
20639;SDS011;10479;53.524;9.846;2023-03-24T16:29:28;9.63;;;1.60;;
20639;SDS011;10479;53.524;9.846;2023-03-24T16:31:54;10.63;;;1.80;;
20639;SDS011;10479;53.524;9.846;2023-03-24T16:34:21;9.45;;;1.73;;
20639;SDS011;10479;53.524;9.846;2023-03-24T16:36:47;6.88;;;1.90;;
20639;SDS011;10479;53.524;9.846;2023-03-24T16:39:35;11.52;;;2.00;;
20639;SDS011;10479;53.524;9.846;2023-03-24T16:42:00;11.25;;;1.80;;
20639;SDS011;10479;53.524;9.846;2023-03-24T16:44:25;8.98;;;2.00;;
20639;SDS011;10479;53.524;9.846;2023-03-24T16:46:51;11.40;;;1.67;;
20639;SDS011;10479;53.524;9.846;2023-03-24T16:49:18;9.00;;;1.50;;
20639;SDS011;10479;53.524;9.846;2023-03-24T16:51:44;9.50;;;1.65;;
20639;SDS011;10479;53.524;9.846;2023-03-24T16:54:10;9.82;;;1.50;;
20639;SDS011;10479;53.524;9.846;2023-03-24T16:56:36;12.18;;;2.00;;
20639;SDS011;10479;53.524;9.846;2023-03-24T16:59:02;9.65;;;1.70;;
20639;SDS011;10479;53.524;9.846;2023-03-24T17:04:07;9.93;;;1.50;;
20639;SDS011;10479;53.524;9.846;2023-03-24T17:06:36;12.00;;;1.70;;
20639;SDS011;10479;53.524;9.846;2023-03-24T17:09:04;10.70;;;1.80;;
20639;SDS011;10479;53.524;9.846;2023-03-24T17:11:31;13.13;;;2.22;;
20639;SDS011;10479;53.524;9.846;2023-03-24T17:13:59;10.23;;;1.70;;
20639;SDS011;10479;53.524;9.846;2023-03-24T17:16:33;7.88;;;1.58;;
20639;SDS011;10479;53.524;9.846;2023-03-24T17:19:03;9.52;;;1.58;;
20639;SDS011;10479;53.524;9.846;2023-03-24T17:21:31;10.80;;;1.95;;
20639;SDS011;10479;53.524;9.846;2023-03-24T17:24:06;8.77;;;2.13;;
20639;SDS011;10479;53.524;9.846;2023-03-24T17:26:35;10.52;;;1.95;;
20639;SDS011;10479;53.524;9.846;2023-03-24T17:29:02;8.73;;;1.80;;
20639;SDS011;10479;53.524;9.846;2023-03-24T17:31:31;8.43;;;1.50;;
20639;SDS011;10479;53.524;9.846;2023-03-24T17:33:57;5.85;;;1.52;;
20639;SDS011;10479;53.524;9.846;2023-03-24T17:36:26;9.52;;;1.92;;
20639;SDS011;10479;53.524;9.846;2023-03-24T17:38:54;7.15;;;1.60;;
20639;SDS011;10479;53.524;9.846;2023-03-24T17:41:21;6.72;;;1.25;;
20639;SDS011;10479;53.524;9.846;2023-03-24T17:43:49;5.80;;;1.40;;
20639;SDS011;10479;53.524;9.846;2023-03-24T17:46:15;8.98;;;1.60;;
20639;SDS011;10479;53.524;9.846;2023-03-24T17:48:42;4.30;;;1.20;;
20639;SDS011;10479;53.524;9.846;2023-03-24T17:51:08;7.97;;;1.60;;
20639;SDS011;10479;53.524;9.846;2023-03-24T17:53:35;7.40;;;1.40;;
20639;SDS011;10479;53.524;9.846;2023-03-24T17:56:01;7.28;;;1.50;;
20639;SDS011;10479;53.524;9.846;2023-03-24T17:58:32;5.93;;;1.45;;
20639;SDS011;10479;53.524;9.846;2023-03-24T18:01:03;7.90;;;1.50;;
20639;SDS011;10479;53.524;9.846;2023-03-24T18:03:33;6.40;;;1.23;;
20639;SDS011;10479;53.524;9.846;2023-03-24T18:06:05;9.10;;;1.40;;
20639;SDS011;10479;53.524;9.846;2023-03-24T18:08:33;8.13;;;1.30;;
20639;SDS011;10479;53.524;9.846;2023-03-24T18:11:10;8.25;;;1.27;;
20639;SDS011;10479;53.524;9.846;2023-03-24T18:13:39;8.88;;;1.33;;
20639;SDS011;10479;53.524;9.846;2023-03-24T18:16:06;6.50;;;1.30;;
20639;SDS011;10479;53.524;9.846;2023-03-24T18:18:35;6.93;;;1.42;;
20639;SDS011;10479;53.524;9.846;2023-03-24T18:21:05;5.32;;;1.25;;
20639;SDS011;10479;53.524;9.846;2023-03-24T18:23:35;5.45;;;1.20;;
20639;SDS011;10479;53.524;9.846;2023-03-24T18:26:05;6.18;;;1.20;;
20639;SDS011;10479;53.524;9.846;2023-03-24T18:28:34;8.98;;;1.40;;
20639;SDS011;10479;53.524;9.846;2023-03-24T18:31:12;6.45;;;1.45;;
20639;SDS011;10479;53.524;9.846;2023-03-24T18:33:40;9.15;;;1.27;;
20639;SDS011;10479;53.524;9.846;2023-03-24T18:36:15;8.23;;;1.75;;